createdAt,value
2023-03-03T00:00:47.619Z,29.30
2023-03-03T00:03:18.143Z,27.73
2023-03-03T00:05:44.732Z,26.48
2023-03-03T00:08:11.389Z,26.95
2023-03-03T00:10:38.679Z,26.15
2023-03-03T00:13:14.941Z,27.25
2023-03-03T00:15:41.539Z,26.88
2023-03-03T00:18:35.627Z,25.92
2023-03-03T00:21:04.116Z,26.10
2023-03-03T00:23:36.152Z,27.58
2023-03-03T00:26:06.249Z,27.15
2023-03-03T00:28:44.526Z,29.45
2023-03-03T00:31:40.502Z,36.80
2023-03-03T00:34:20.127Z,37.33
2023-03-03T00:36:49.593Z,33.78
2023-03-03T00:39:21.987Z,35.17
2023-03-03T00:41:48.972Z,30.10
2023-03-03T00:44:37.410Z,32.78
2023-03-03T00:47:22.694Z,30.83
2023-03-03T00:49:49.289Z,29.35
2023-03-03T00:52:20.200Z,29.80
2023-03-03T00:54:46.997Z,29.15
2023-03-03T00:57:13.679Z,31.30
2023-03-03T00:59:40.388Z,30.55
2023-03-03T01:02:07.008Z,30.50
2023-03-03T01:04:33.589Z,29.08
2023-03-03T01:07:00.154Z,28.77
2023-03-03T01:09:26.784Z,32.70
2023-03-03T01:11:53.501Z,31.40
2023-03-03T01:14:20.125Z,34.30
2023-03-03T01:16:46.789Z,32.17
2023-03-03T01:19:13.428Z,34.53
2023-03-03T01:21:40.115Z,33.58
2023-03-03T01:24:06.719Z,31.40
2023-03-03T01:26:33.301Z,31.42
2023-03-03T01:28:59.878Z,33.28
2023-03-03T01:31:27.050Z,30.92
2023-03-03T01:33:53.657Z,32.63
2023-03-03T01:36:26.989Z,31.73
2023-03-03T01:38:53.816Z,31.67
2023-03-03T01:41:21.099Z,31.30
2023-03-03T01:43:50.061Z,31.98
2023-03-03T01:46:55.667Z,34.33
2023-03-03T01:49:31.365Z,34.33
2023-03-03T01:52:01.384Z,36.28
2023-03-03T01:54:41.970Z,35.33
2023-03-03T01:57:15.454Z,35.15
2023-03-03T01:59:49.341Z,36.63
2023-03-03T02:02:16.488Z,34.63
2023-03-03T02:04:43.024Z,33.10
2023-03-03T02:07:11.646Z,32.22
2023-03-03T02:09:43.899Z,33.40
2023-03-03T02:12:14.019Z,32.55
2023-03-03T02:14:40.635Z,32.28
2023-03-03T02:17:07.428Z,33.03
2023-03-03T02:20:02.052Z,31.90
2023-03-03T02:22:44.263Z,31.30
2023-03-03T02:25:18.546Z,30.20
2023-03-03T02:27:45.232Z,29.67
2023-03-03T02:30:16.345Z,31.95
2023-03-03T02:32:42.989Z,30.05
2023-03-03T02:35:31.860Z,31.13
2023-03-03T02:38:07.192Z,32.17
2023-03-03T02:40:37.825Z,31.60
2023-03-03T02:43:06.796Z,30.83
2023-03-03T02:45:33.518Z,31.42
2023-03-03T02:48:00.127Z,30.83
2023-03-03T02:50:27.410Z,32.70
2023-03-03T02:52:54.026Z,31.33
2023-03-03T02:55:20.588Z,31.02
2023-03-03T02:57:47.127Z,34.95
2023-03-03T03:00:14.031Z,29.95
2023-03-03T03:02:40.647Z,30.50
2023-03-03T03:05:09.005Z,30.02
2023-03-03T03:07:35.749Z,31.13
2023-03-03T03:10:02.314Z,31.40
2023-03-03T03:12:28.860Z,32.33
2023-03-03T03:14:55.410Z,31.60
2023-03-03T03:17:22.202Z,30.90
2023-03-03T03:19:48.744Z,31.58
2023-03-03T03:22:15.331Z,32.75
2023-03-03T03:24:41.919Z,31.73
2023-03-03T03:27:08.838Z,30.52
2023-03-03T03:29:35.684Z,31.80
2023-03-03T03:32:02.261Z,29.77
2023-03-03T03:34:28.963Z,31.58
2023-03-03T03:36:55.547Z,31.65
2023-03-03T03:39:22.077Z,30.33
2023-03-03T03:41:48.761Z,30.65
2023-03-03T03:44:15.300Z,30.27
2023-03-03T03:46:41.911Z,32.35
2023-03-03T03:49:08.454Z,31.73
2023-03-03T03:51:38.170Z,31.38
2023-03-03T03:54:04.778Z,30.00
2023-03-03T03:56:31.343Z,30.35
2023-03-03T03:58:58.056Z,31.83
2023-03-03T04:01:25.435Z,32.08
2023-03-03T04:03:52.892Z,34.08
2023-03-03T04:06:19.469Z,34.33
2023-03-03T04:08:46.035Z,34.33
2023-03-03T04:11:12.617Z,34.70
2023-03-03T04:13:39.304Z,35.83
2023-03-03T04:16:06.089Z,34.88
2023-03-03T04:18:32.760Z,31.25
2023-03-03T04:20:59.381Z,32.30
2023-03-03T04:23:25.969Z,30.75
2023-03-03T04:25:52.574Z,32.63
2023-03-03T04:28:19.194Z,31.73
2023-03-03T04:30:46.145Z,29.85
2023-03-03T04:33:12.792Z,30.20
2023-03-03T04:35:39.414Z,29.48
2023-03-03T04:38:06.019Z,31.40
2023-03-03T04:40:32.601Z,30.05
2023-03-03T04:42:59.208Z,29.75
2023-03-03T04:45:25.915Z,32.72
2023-03-03T04:47:52.551Z,30.08
2023-03-03T04:50:20.011Z,29.58
2023-03-03T04:52:46.568Z,33.70
2023-03-03T04:55:14.154Z,32.78
2023-03-03T04:57:40.745Z,31.23
2023-03-03T05:00:07.896Z,31.23
2023-03-03T05:02:34.429Z,33.92
2023-03-03T05:05:01.113Z,34.72
2023-03-03T05:07:27.821Z,33.60
2023-03-03T05:09:54.352Z,33.67
2023-03-03T05:12:21.284Z,30.98
2023-03-03T05:14:47.844Z,31.95
2023-03-03T05:17:14.513Z,31.98
2023-03-03T05:19:41.228Z,32.63
2023-03-03T05:22:07.805Z,31.55
2023-03-03T05:24:34.367Z,33.42
2023-03-03T05:27:01.052Z,31.70
2023-03-03T05:29:28.643Z,33.08
2023-03-03T05:31:55.280Z,32.35
2023-03-03T05:34:21.919Z,30.95
2023-03-03T05:36:48.450Z,32.72
2023-03-03T05:39:15.074Z,35.53
2023-03-03T05:41:43.014Z,36.53
2023-03-03T05:44:10.238Z,35.53
2023-03-03T05:46:36.794Z,36.55
2023-03-03T05:49:03.412Z,35.88
2023-03-03T05:51:29.989Z,35.30
2023-03-03T05:53:56.696Z,36.63
2023-03-03T05:56:23.265Z,31.48
2023-03-03T05:58:50.127Z,33.13
2023-03-03T06:01:16.969Z,32.63
2023-03-03T06:03:43.517Z,32.20
2023-03-03T06:06:10.250Z,33.55
2023-03-03T06:08:36.821Z,33.03
2023-03-03T06:11:03.507Z,32.88
2023-03-03T06:13:30.410Z,31.17
2023-03-03T06:15:56.969Z,31.83
2023-03-03T06:18:23.526Z,33.22
2023-03-03T06:20:54.019Z,33.55
2023-03-03T06:23:21.583Z,35.67
2023-03-03T06:25:48.217Z,37.92
2023-03-03T06:28:15.336Z,36.08
2023-03-03T06:30:41.930Z,37.65
2023-03-03T06:33:08.521Z,39.22
2023-03-03T06:35:35.234Z,39.50
2023-03-03T06:38:02.053Z,41.42
2023-03-03T06:40:28.615Z,39.67
2023-03-03T06:42:55.499Z,41.63
2023-03-03T06:45:22.132Z,44.15
2023-03-03T06:47:48.667Z,42.60
2023-03-03T06:50:20.174Z,44.63
2023-03-03T06:52:46.934Z,42.50
2023-03-03T06:55:23.731Z,43.60
2023-03-03T06:57:50.305Z,43.60
2023-03-03T07:00:20.331Z,41.70
2023-03-03T07:03:12.873Z,41.38
2023-03-03T07:05:39.465Z,42.33
2023-03-03T07:08:32.533Z,46.38
2023-03-03T07:11:09.200Z,43.47
2023-03-03T07:13:52.021Z,43.22
2023-03-03T07:16:22.909Z,44.97
2023-03-03T07:19:05.310Z,45.10
2023-03-03T07:21:36.384Z,41.33
2023-03-03T07:24:34.224Z,41.30
2023-03-03T07:27:11.730Z,42.88
2023-03-03T07:29:42.314Z,44.92
2023-03-03T07:32:24.908Z,43.25
2023-03-03T07:34:53.167Z,41.05
2023-03-03T07:37:29.836Z,43.22
2023-03-03T07:39:56.646Z,43.28
2023-03-03T07:42:29.054Z,44.25
2023-03-03T07:44:58.825Z,47.63
2023-03-03T07:47:27.803Z,47.65
2023-03-03T07:50:00.770Z,47.40
2023-03-03T07:52:48.929Z,49.05
2023-03-03T07:55:36.031Z,44.72
2023-03-03T07:58:15.592Z,45.95
2023-03-03T08:00:45.183Z,45.25
2023-03-03T08:03:21.103Z,44.85
2023-03-03T08:05:49.770Z,46.78
2023-03-03T08:08:44.941Z,48.05
2023-03-03T08:11:11.493Z,48.08
2023-03-03T08:13:39.298Z,52.00
2023-03-03T08:16:11.768Z,48.45
2023-03-03T08:18:42.433Z,48.72
2023-03-03T08:21:11.977Z,48.40
2023-03-03T08:23:38.773Z,47.92
2023-03-03T08:26:06.090Z,48.15
2023-03-03T08:28:32.657Z,51.65
2023-03-03T08:31:14.224Z,56.55
2023-03-03T08:33:41.770Z,52.80
2023-03-03T08:36:08.722Z,52.65
2023-03-03T08:38:35.733Z,52.38
2023-03-03T08:41:02.482Z,56.03
2023-03-03T08:43:29.069Z,71.47
2023-03-03T08:46:00.538Z,53.00
2023-03-03T08:48:29.024Z,53.92
2023-03-03T08:50:55.701Z,59.28
2023-03-03T08:53:23.321Z,65.35
2023-03-03T08:55:50.858Z,60.17
2023-03-03T08:58:20.370Z,62.83
2023-03-03T09:00:50.214Z,72.07
2023-03-03T09:03:17.759Z,62.20
2023-03-03T09:05:45.191Z,60.05
2023-03-03T09:08:12.003Z,61.97
2023-03-03T09:10:39.207Z,65.95
2023-03-03T09:13:18.993Z,64.75
2023-03-03T09:15:45.675Z,66.25
2023-03-03T09:18:18.823Z,64.65
2023-03-03T09:20:53.743Z,66.57
2023-03-03T09:23:37.140Z,69.05
2023-03-03T09:26:30.621Z,66.30
2023-03-03T09:29:15.380Z,63.00
2023-03-03T09:31:48.453Z,63.10
2023-03-03T09:34:39.184Z,59.78
2023-03-03T09:37:28.676Z,63.78
2023-03-03T09:39:57.630Z,69.13
2023-03-03T09:43:00.675Z,70.45
2023-03-03T09:45:37.422Z,74.32
2023-03-03T09:48:30.568Z,76.13
2023-03-03T09:51:12.141Z,73.43
2023-03-03T09:54:03.576Z,75.53
2023-03-03T09:56:37.493Z,76.22
2023-03-03T09:59:04.020Z,64.03
2023-03-03T10:01:53.201Z,65.75
2023-03-03T10:04:51.120Z,72.03
2023-03-03T10:07:37.212Z,57.35
2023-03-03T10:10:06.981Z,40.80
2023-03-03T10:12:46.604Z,33.88
2023-03-03T10:15:41.269Z,30.27
2023-03-03T10:18:38.968Z,30.85
2023-03-03T10:21:08.600Z,35.65
2023-03-03T10:23:46.408Z,38.13
2023-03-03T10:26:44.320Z,34.55
2023-03-03T10:29:22.101Z,37.13
2023-03-03T10:32:01.001Z,36.80
2023-03-03T10:34:40.052Z,41.15
2023-03-03T10:37:36.629Z,32.25
2023-03-03T10:40:10.931Z,32.65
2023-03-03T10:42:49.780Z,27.33
2023-03-03T10:45:45.975Z,26.17
2023-03-03T10:48:26.766Z,25.08
2023-03-03T10:50:59.104Z,26.33
2023-03-03T10:53:40.660Z,28.08
2023-03-03T10:56:51.690Z,29.10
2023-03-03T10:59:40.227Z,27.48
2023-03-03T11:02:56.577Z,32.95
2023-03-03T11:05:29.365Z,30.83
2023-03-03T11:08:06.376Z,31.42
2023-03-03T11:10:40.984Z,32.08
2023-03-03T11:13:25.466Z,32.10
2023-03-03T11:16:10.399Z,30.65
2023-03-03T11:18:42.951Z,30.63
2023-03-03T11:21:28.056Z,27.10
2023-03-03T11:24:27.318Z,23.92
2023-03-03T11:27:32.872Z,25.50
2023-03-03T11:30:05.270Z,25.00
2023-03-03T11:32:52.855Z,22.67
2023-03-03T11:35:29.298Z,22.67
2023-03-03T11:38:19.631Z,20.73
2023-03-03T11:40:54.036Z,18.80
2023-03-03T11:43:37.186Z,19.35
2023-03-03T11:46:16.845Z,18.63
2023-03-03T11:49:00.300Z,18.17
2023-03-03T11:51:39.225Z,18.40
2023-03-03T11:54:22.487Z,20.42
2023-03-03T11:56:50.003Z,17.80
2023-03-03T11:59:42.111Z,17.10
2023-03-03T12:02:17.579Z,18.55
2023-03-03T12:04:55.985Z,18.05
2023-03-03T12:07:52.596Z,16.73
2023-03-03T12:10:54.341Z,16.48
2023-03-03T12:13:29.513Z,17.38
2023-03-03T12:16:11.144Z,18.27
2023-03-03T12:18:51.728Z,17.38
2023-03-03T12:21:41.413Z,18.70
2023-03-03T12:24:19.971Z,16.70
2023-03-03T12:27:14.502Z,17.40
2023-03-03T12:30:21.617Z,18.55
2023-03-03T12:32:48.102Z,18.98
2023-03-03T12:35:35.017Z,20.00
2023-03-03T12:38:04.557Z,17.67
2023-03-03T12:40:34.489Z,16.25
2023-03-03T12:43:33.446Z,14.63
2023-03-03T12:46:37.706Z,16.20
2023-03-03T12:49:05.108Z,16.67
2023-03-03T12:51:37.319Z,15.88
2023-03-03T12:54:25.777Z,14.77
2023-03-03T12:56:58.485Z,15.18
2023-03-03T13:00:01.141Z,15.88
2023-03-03T13:03:03.112Z,14.45
2023-03-03T13:05:48.686Z,14.52
2023-03-03T13:08:29.357Z,14.73
2023-03-03T13:11:09.193Z,16.42
2023-03-03T13:13:45.563Z,13.70
2023-03-03T13:16:26.370Z,15.25
2023-03-03T13:19:06.780Z,16.63
2023-03-03T13:21:45.652Z,15.40
2023-03-03T13:24:51.080Z,16.77
2023-03-03T13:27:21.126Z,16.42
2023-03-03T13:29:47.626Z,16.58
2023-03-03T13:32:23.469Z,16.13
2023-03-03T13:35:09.570Z,15.90
2023-03-03T13:37:43.506Z,16.95
2023-03-03T13:40:13.382Z,16.98
2023-03-03T13:42:47.503Z,14.65
2023-03-03T13:45:41.376Z,14.95
2023-03-03T13:48:07.915Z,15.00
2023-03-03T13:50:49.814Z,14.90
2023-03-03T13:53:28.348Z,15.10
2023-03-03T13:56:19.624Z,14.30
2023-03-03T13:59:34.796Z,14.82
2023-03-03T14:02:29.789Z,14.70
2023-03-03T14:05:03.318Z,16.02
2023-03-03T14:07:56.214Z,14.55
2023-03-03T14:10:29.000Z,17.17
2023-03-03T14:13:25.069Z,19.02
2023-03-03T14:16:01.788Z,18.20
2023-03-03T14:18:53.617Z,17.40
2023-03-03T14:21:40.737Z,19.80
2023-03-03T14:24:17.296Z,18.83
2023-03-03T14:27:14.167Z,19.48
2023-03-03T14:29:40.907Z,19.98
2023-03-03T14:32:39.623Z,18.30
2023-03-03T14:35:20.448Z,21.02
2023-03-03T14:37:47.524Z,21.35
2023-03-03T14:40:21.786Z,21.95
2023-03-03T14:45:32.030Z,22.00
2023-03-03T14:48:01.148Z,20.90
2023-03-03T14:50:32.931Z,20.88
2023-03-03T14:53:12.926Z,19.38
2023-03-03T14:55:42.519Z,20.27
2023-03-03T14:58:27.652Z,19.63
2023-03-03T15:01:21.071Z,20.00
2023-03-03T15:04:02.491Z,22.65
2023-03-03T15:06:36.817Z,20.63
2023-03-03T15:12:37.318Z,20.67
2023-03-03T15:15:08.923Z,19.92
2023-03-03T15:17:38.086Z,20.05
2023-03-03T15:20:10.450Z,19.98
2023-03-03T15:22:36.936Z,20.63
2023-03-03T15:25:20.924Z,21.15
2023-03-03T15:28:08.226Z,21.67
2023-03-03T15:31:18.068Z,21.20
2023-03-03T15:34:01.711Z,21.70
2023-03-03T15:36:37.317Z,21.05
2023-03-03T15:39:22.544Z,20.63
2023-03-03T15:42:03.144Z,21.40
2023-03-03T15:44:32.843Z,21.95
2023-03-03T15:47:07.338Z,21.65
2023-03-03T15:52:22.790Z,21.75
2023-03-03T15:55:10.383Z,20.33
2023-03-03T15:57:45.938Z,32.78
2023-03-03T16:00:46.568Z,23.17
2023-03-03T16:03:36.888Z,20.83
2023-03-03T16:06:19.145Z,21.38
2023-03-03T16:09:00.621Z,20.85
2023-03-03T16:11:39.377Z,22.80
2023-03-03T16:14:33.793Z,20.23
2023-03-03T16:17:37.531Z,23.20
2023-03-03T16:20:22.671Z,19.77
2023-03-03T16:22:54.844Z,21.63
2023-03-03T16:25:24.721Z,21.95
2023-03-03T16:28:45.068Z,22.67
2023-03-03T16:31:38.084Z,25.73
2023-03-03T16:34:33.628Z,26.13
2023-03-03T16:37:32.398Z,25.85
2023-03-03T16:40:11.426Z,24.80
2023-03-03T16:42:38.088Z,25.25
2023-03-03T16:45:21.465Z,27.65
2023-03-03T16:47:48.060Z,25.40
2023-03-03T16:50:38.708Z,25.20
2023-03-03T16:53:30.824Z,25.45
2023-03-03T16:56:18.557Z,26.55
2023-03-03T16:58:54.361Z,28.20
2023-03-03T17:01:26.867Z,26.85
2023-03-03T17:04:01.066Z,26.83
2023-03-03T17:06:33.548Z,30.65
2023-03-03T17:09:33.226Z,31.05
2023-03-03T17:12:16.171Z,28.92
2023-03-03T17:15:19.725Z,32.33
2023-03-03T17:18:05.133Z,38.80
2023-03-03T17:20:45.038Z,33.05
2023-03-03T17:23:40.543Z,36.00
2023-03-03T17:26:13.073Z,35.15
2023-03-03T17:29:17.545Z,34.10
2023-03-03T17:32:08.283Z,35.90
2023-03-03T17:34:40.596Z,36.42
2023-03-03T17:37:42.340Z,36.70
2023-03-03T17:40:43.976Z,37.45
2023-03-03T17:43:20.701Z,38.40
2023-03-03T17:45:50.527Z,41.65
2023-03-03T17:48:47.986Z,41.08
2023-03-03T17:51:41.975Z,39.22
2023-03-03T17:54:19.109Z,36.88
2023-03-03T17:57:10.373Z,41.47
2023-03-03T18:00:10.788Z,38.05
2023-03-03T18:02:43.377Z,38.25
2023-03-03T18:05:39.395Z,41.08
2023-03-03T18:08:36.640Z,41.28
2023-03-03T18:11:03.153Z,37.70
2023-03-03T18:14:07.378Z,40.60
2023-03-03T18:16:55.716Z,41.95
2023-03-03T18:19:49.280Z,39.97
2023-03-03T18:22:25.639Z,42.42
2023-03-03T18:24:52.176Z,41.30
2023-03-03T18:27:24.933Z,39.00
2023-03-03T18:30:20.558Z,40.47
2023-03-03T18:32:56.433Z,36.88
2023-03-03T18:35:43.955Z,38.92
2023-03-03T18:38:16.703Z,36.08
2023-03-03T18:40:53.606Z,39.53
2023-03-03T18:43:41.768Z,39.95
2023-03-03T18:46:20.500Z,39.22
2023-03-03T18:49:04.229Z,41.90
2023-03-03T18:51:40.120Z,38.38
2023-03-03T18:54:12.896Z,41.25
2023-03-03T18:57:03.734Z,38.67
2023-03-03T18:59:30.236Z,39.95
2023-03-03T19:02:18.189Z,41.15
2023-03-03T19:04:55.699Z,40.08
2023-03-03T19:07:51.800Z,39.95
2023-03-03T19:10:21.512Z,39.22
2023-03-03T19:12:55.482Z,41.28
2023-03-03T19:15:35.774Z,44.45
2023-03-03T19:18:14.919Z,41.80
2023-03-03T19:20:45.765Z,43.78
2023-03-03T19:23:15.917Z,43.30
2023-03-03T19:25:42.944Z,43.42
2023-03-03T19:28:15.397Z,42.15
2023-03-03T19:31:03.429Z,44.83
2023-03-03T19:33:42.967Z,41.50
2023-03-03T19:36:15.634Z,43.38
2023-03-03T19:39:15.710Z,43.55
2023-03-03T19:42:13.625Z,44.53
2023-03-03T19:44:57.020Z,44.17
2023-03-03T19:47:38.830Z,45.28
2023-03-03T19:50:33.083Z,41.08
2023-03-03T19:53:14.796Z,42.70
2023-03-03T19:56:10.184Z,44.28
2023-03-03T20:01:40.633Z,44.40
2023-03-03T20:04:16.379Z,45.55
2023-03-03T20:07:03.347Z,45.08
2023-03-03T20:09:53.767Z,47.00
2023-03-03T20:12:32.028Z,45.05
2023-03-03T20:15:15.161Z,41.90
2023-03-03T20:17:54.766Z,46.85
2023-03-03T20:20:50.976Z,44.75
2023-03-03T20:23:47.121Z,47.90
2023-03-03T20:26:33.915Z,43.22
2023-03-03T20:29:07.215Z,45.13
2023-03-03T20:31:52.155Z,46.90
2023-03-03T20:34:30.667Z,45.22
2023-03-03T20:37:23.143Z,43.92
2023-03-03T20:40:11.315Z,42.83
2023-03-03T20:43:04.999Z,43.53
2023-03-03T20:46:09.794Z,41.80
2023-03-03T20:48:50.537Z,46.23
2023-03-03T20:51:35.232Z,43.22
2023-03-03T20:54:14.920Z,44.38
2023-03-03T20:56:56.576Z,45.72
2023-03-03T20:59:36.310Z,43.20
2023-03-03T21:02:08.982Z,42.22
2023-03-03T21:04:36.293Z,41.97
2023-03-03T21:07:04.607Z,42.42
2023-03-03T21:09:33.950Z,41.30
2023-03-03T21:12:30.757Z,42.08
2023-03-03T21:15:07.228Z,40.72
2023-03-03T21:17:33.959Z,41.90
2023-03-03T21:20:25.739Z,41.65
2023-03-03T21:22:53.237Z,39.72
2023-03-03T21:25:41.494Z,44.75
2023-03-03T21:28:20.817Z,44.60
2023-03-03T21:31:11.986Z,42.42
2023-03-03T21:33:51.867Z,43.85
2023-03-03T21:36:23.476Z,47.08
2023-03-03T21:38:52.222Z,46.13
2023-03-03T21:41:19.548Z,45.78
2023-03-03T21:43:49.430Z,43.83
2023-03-03T21:46:24.342Z,45.38
2023-03-03T21:48:52.126Z,44.40
2023-03-03T21:51:20.441Z,45.13
2023-03-03T21:53:47.818Z,43.08
2023-03-03T21:56:14.563Z,44.03
2023-03-03T21:58:42.249Z,43.45
2023-03-03T22:01:09.632Z,44.90
2023-03-03T22:03:36.551Z,44.58
2023-03-03T22:06:03.256Z,43.65
2023-03-03T22:08:29.889Z,44.78
2023-03-03T22:10:56.570Z,44.10
2023-03-03T22:13:24.925Z,44.33
2023-03-03T22:15:52.950Z,44.75
2023-03-03T22:18:20.711Z,44.00
2023-03-03T22:20:48.157Z,46.55
2023-03-03T22:23:15.198Z,44.45
2023-03-03T22:25:42.034Z,45.40
2023-03-03T22:28:08.894Z,43.88
2023-03-03T22:30:36.752Z,42.20
2023-03-03T22:33:03.644Z,47.53
2023-03-03T22:35:30.537Z,47.25
2023-03-03T22:37:57.204Z,44.83
2023-03-03T22:40:24.117Z,45.17
2023-03-03T22:42:50.821Z,45.38
2023-03-03T22:45:17.489Z,44.88
2023-03-03T22:47:44.139Z,43.33
2023-03-03T22:50:11.444Z,45.00
2023-03-03T22:52:38.150Z,45.05
2023-03-03T22:55:05.415Z,44.58
2023-03-03T22:57:32.165Z,46.67
2023-03-03T23:00:00.036Z,50.47
2023-03-03T23:02:26.689Z,46.58
2023-03-03T23:04:58.477Z,45.22
2023-03-03T23:07:26.448Z,43.45
2023-03-03T23:09:53.057Z,44.90
2023-03-03T23:12:20.035Z,40.72
2023-03-03T23:14:46.613Z,46.47
2023-03-03T23:17:13.256Z,42.88
2023-03-03T23:19:39.802Z,43.50
2023-03-03T23:22:06.433Z,42.90
2023-03-03T23:24:33.285Z,46.25
2023-03-03T23:27:00.775Z,44.35
2023-03-03T23:29:27.437Z,44.10
2023-03-03T23:31:54.118Z,46.13
2023-03-03T23:34:21.027Z,45.97
2023-03-03T23:36:47.701Z,45.45
2023-03-03T23:39:14.354Z,45.35
2023-03-03T23:41:41.229Z,43.22
2023-03-03T23:44:07.808Z,40.53
2023-03-03T23:46:34.451Z,45.35
2023-03-03T23:49:02.121Z,43.47
2023-03-03T23:51:28.835Z,43.80
2023-03-03T23:53:56.352Z,49.08
2023-03-03T23:56:23.588Z,48.70
2023-03-03T23:58:50.170Z,45.45
